sensor_id;sensor_type;location;lat;lon;timestamp;temperature;humidity
69595;DHT22;56800;52.142;5.364;2022-08-20T00:00:38;21.10;74.90
69595;DHT22;56800;52.142;5.364;2022-08-20T00:03:08;21.10;74.90
69595;DHT22;56800;52.142;5.364;2022-08-20T00:05:38;21.10;75.00
69595;DHT22;56800;52.142;5.364;2022-08-20T00:08:06;21.00;75.00
69595;DHT22;56800;52.142;5.364;2022-08-20T00:10:36;21.00;75.10
69595;DHT22;56800;52.142;5.364;2022-08-20T00:13:05;21.00;75.10
69595;DHT22;56800;52.142;5.364;2022-08-20T00:15:34;21.00;75.20
69595;DHT22;56800;52.142;5.364;2022-08-20T00:18:02;21.00;75.20
69595;DHT22;56800;52.142;5.364;2022-08-20T00:20:32;21.00;75.20
69595;DHT22;56800;52.142;5.364;2022-08-20T00:23:00;21.00;75.60
69595;DHT22;56800;52.142;5.364;2022-08-20T00:25:27;21.00;75.20
69595;DHT22;56800;52.142;5.364;2022-08-20T00:27:56;21.00;75.20
69595;DHT22;56800;52.142;5.364;2022-08-20T00:30:24;21.00;75.20
69595;DHT22;56800;52.142;5.364;2022-08-20T00:32:55;21.00;75.30
69595;DHT22;56800;52.142;5.364;2022-08-20T00:35:25;20.90;75.30
69595;DHT22;56800;52.142;5.364;2022-08-20T00:37:53;21.00;75.50
69595;DHT22;56800;52.142;5.364;2022-08-20T00:40:36;20.90;75.40
69595;DHT22;56800;52.142;5.364;2022-08-20T00:43:06;20.90;75.50
69595;DHT22;56800;52.142;5.364;2022-08-20T00:45:34;21.00;75.50
69595;DHT22;56800;52.142;5.364;2022-08-20T00:48:01;20.90;75.50
69595;DHT22;56800;52.142;5.364;2022-08-20T00:50:31;20.90;75.50
69595;DHT22;56800;52.142;5.364;2022-08-20T00:53:00;20.90;75.60
69595;DHT22;56800;52.142;5.364;2022-08-20T00:55:28;20.90;75.60
69595;DHT22;56800;52.142;5.364;2022-08-20T00:57:59;20.90;75.60
69595;DHT22;56800;52.142;5.364;2022-08-20T01:00:32;20.80;75.50
69595;DHT22;56800;52.142;5.364;2022-08-20T01:03:00;20.90;75.60
69595;DHT22;56800;52.142;5.364;2022-08-20T01:05:27;20.90;75.60
69595;DHT22;56800;52.142;5.364;2022-08-20T01:07:56;20.80;75.60
69595;DHT22;56800;52.142;5.364;2022-08-20T01:10:26;20.80;75.50
69595;DHT22;56800;52.142;5.364;2022-08-20T01:12:55;20.80;75.50
69595;DHT22;56800;52.142;5.364;2022-08-20T01:15:28;20.80;75.50
69595;DHT22;56800;52.142;5.364;2022-08-20T01:17:58;20.80;75.70
69595;DHT22;56800;52.142;5.364;2022-08-20T01:20:30;20.80;75.90
69595;DHT22;56800;52.142;5.364;2022-08-20T01:23:17;20.80;76.80
69595;DHT22;56800;52.142;5.364;2022-08-20T01:30:58;20.60;76.60
69595;DHT22;56800;52.142;5.364;2022-08-20T01:33:25;20.60;76.80
69595;DHT22;56800;52.142;5.364;2022-08-20T01:35:52;20.60;77.00
69595;DHT22;56800;52.142;5.364;2022-08-20T01:38:20;20.60;77.00
69595;DHT22;56800;52.142;5.364;2022-08-20T01:43:32;20.50;77.20
69595;DHT22;56800;52.142;5.364;2022-08-20T01:46:03;20.50;77.30
69595;DHT22;56800;52.142;5.364;2022-08-20T01:48:30;20.40;77.30
69595;DHT22;56800;52.142;5.364;2022-08-20T01:51:07;20.40;77.30
69595;DHT22;56800;52.142;5.364;2022-08-20T01:53:40;20.40;77.40
69595;DHT22;56800;52.142;5.364;2022-08-20T01:56:11;20.40;77.40
69595;DHT22;56800;52.142;5.364;2022-08-20T01:58:44;20.40;77.40
69595;DHT22;56800;52.142;5.364;2022-08-20T02:01:29;20.40;77.50
69595;DHT22;56800;52.142;5.364;2022-08-20T02:04:11;20.30;77.50
69595;DHT22;56800;52.142;5.364;2022-08-20T02:06:43;20.40;77.80
69595;DHT22;56800;52.142;5.364;2022-08-20T02:09:24;20.40;77.90
69595;DHT22;56800;52.142;5.364;2022-08-20T02:11:51;20.30;77.80
69595;DHT22;56800;52.142;5.364;2022-08-20T02:14:19;20.30;77.90
69595;DHT22;56800;52.142;5.364;2022-08-20T02:16:46;20.30;78.00
69595;DHT22;56800;52.142;5.364;2022-08-20T02:19:26;20.30;78.10
69595;DHT22;56800;52.142;5.364;2022-08-20T02:21:56;20.30;78.10
69595;DHT22;56800;52.142;5.364;2022-08-20T02:24:24;20.20;78.00
69595;DHT22;56800;52.142;5.364;2022-08-20T02:26:51;20.20;78.00
69595;DHT22;56800;52.142;5.364;2022-08-20T02:29:18;20.30;78.10
69595;DHT22;56800;52.142;5.364;2022-08-20T02:31:45;20.20;78.00
69595;DHT22;56800;52.142;5.364;2022-08-20T02:34:32;20.30;78.10
69595;DHT22;56800;52.142;5.364;2022-08-20T02:37:04;20.20;78.10
69595;DHT22;56800;52.142;5.364;2022-08-20T02:39:31;20.20;78.20
69595;DHT22;56800;52.142;5.364;2022-08-20T02:41:58;20.20;78.20
69595;DHT22;56800;52.142;5.364;2022-08-20T02:44:25;20.20;78.20
69595;DHT22;56800;52.142;5.364;2022-08-20T02:46:52;20.20;78.10
69595;DHT22;56800;52.142;5.364;2022-08-20T02:49:19;20.20;78.20
69595;DHT22;56800;52.142;5.364;2022-08-20T02:51:45;20.20;78.20
69595;DHT22;56800;52.142;5.364;2022-08-20T02:54:12;20.20;78.20
69595;DHT22;56800;52.142;5.364;2022-08-20T02:56:39;20.10;78.20
69595;DHT22;56800;52.142;5.364;2022-08-20T02:59:06;20.10;78.20
69595;DHT22;56800;52.142;5.364;2022-08-20T03:01:35;20.10;78.20
69595;DHT22;56800;52.142;5.364;2022-08-20T03:04:03;20.10;78.20
69595;DHT22;56800;52.142;5.364;2022-08-20T03:06:29;20.10;78.30
69595;DHT22;56800;52.142;5.364;2022-08-20T03:08:56;20.10;78.30
69595;DHT22;56800;52.142;5.364;2022-08-20T03:11:23;20.00;78.10
69595;DHT22;56800;52.142;5.364;2022-08-20T03:13:50;20.00;78.20
69595;DHT22;56800;52.142;5.364;2022-08-20T03:16:18;20.00;78.30
69595;DHT22;56800;52.142;5.364;2022-08-20T03:18:45;20.00;78.20
69595;DHT22;56800;52.142;5.364;2022-08-20T03:21:12;20.00;78.30
69595;DHT22;56800;52.142;5.364;2022-08-20T03:23:40;19.90;78.20
69595;DHT22;56800;52.142;5.364;2022-08-20T03:26:10;19.90;78.20
69595;DHT22;56800;52.142;5.364;2022-08-20T03:28:38;19.90;78.30
69595;DHT22;56800;52.142;5.364;2022-08-20T03:31:06;19.90;78.30
69595;DHT22;56800;52.142;5.364;2022-08-20T03:33:32;19.90;78.40
69595;DHT22;56800;52.142;5.364;2022-08-20T03:35:59;19.80;78.40
69595;DHT22;56800;52.142;5.364;2022-08-20T03:38:26;19.90;78.40
69595;DHT22;56800;52.142;5.364;2022-08-20T03:40:59;19.80;78.30
69595;DHT22;56800;52.142;5.364;2022-08-20T03:43:26;19.80;78.40
69595;DHT22;56800;52.142;5.364;2022-08-20T03:45:53;19.80;78.30
69595;DHT22;56800;52.142;5.364;2022-08-20T03:48:20;19.70;78.20
69595;DHT22;56800;52.142;5.364;2022-08-20T03:50:48;19.70;78.10
69595;DHT22;56800;52.142;5.364;2022-08-20T03:53:16;19.70;77.80
69595;DHT22;56800;52.142;5.364;2022-08-20T03:55:46;19.70;78.00
69595;DHT22;56800;52.142;5.364;2022-08-20T03:58:21;19.60;77.90
69595;DHT22;56800;52.142;5.364;2022-08-20T04:01:00;19.60;78.00
69595;DHT22;56800;52.142;5.364;2022-08-20T04:03:27;19.50;78.00
69595;DHT22;56800;52.142;5.364;2022-08-20T04:05:54;19.50;78.10
69595;DHT22;56800;52.142;5.364;2022-08-20T04:08:28;19.50;78.10
69595;DHT22;56800;52.142;5.364;2022-08-20T04:10:55;19.50;78.10
69595;DHT22;56800;52.142;5.364;2022-08-20T04:13:26;19.50;78.00
69595;DHT22;56800;52.142;5.364;2022-08-20T04:15:55;19.40;78.00
69595;DHT22;56800;52.142;5.364;2022-08-20T04:18:23;19.40;78.10
69595;DHT22;56800;52.142;5.364;2022-08-20T04:20:51;19.30;78.00
69595;DHT22;56800;52.142;5.364;2022-08-20T04:23:19;19.30;78.00
69595;DHT22;56800;52.142;5.364;2022-08-20T04:25:48;19.30;78.10
69595;DHT22;56800;52.142;5.364;2022-08-20T04:28:19;19.30;78.10
69595;DHT22;56800;52.142;5.364;2022-08-20T04:30:55;19.30;78.00
69595;DHT22;56800;52.142;5.364;2022-08-20T04:33:23;19.20;78.00
69595;DHT22;56800;52.142;5.364;2022-08-20T04:35:59;19.20;78.00
69595;DHT22;56800;52.142;5.364;2022-08-20T04:38:30;19.20;78.10
69595;DHT22;56800;52.142;5.364;2022-08-20T04:41:15;19.10;78.30
69595;DHT22;56800;52.142;5.364;2022-08-20T04:43:50;19.10;78.30
69595;DHT22;56800;52.142;5.364;2022-08-20T04:46:16;19.20;78.40
69595;DHT22;56800;52.142;5.364;2022-08-20T04:48:43;19.10;78.30
69595;DHT22;56800;52.142;5.364;2022-08-20T04:51:15;19.10;78.30
69595;DHT22;56800;52.142;5.364;2022-08-20T04:53:43;19.10;78.30
69595;DHT22;56800;52.142;5.364;2022-08-20T04:56:18;19.10;78.40
69595;DHT22;56800;52.142;5.364;2022-08-20T04:58:49;19.00;78.40
69595;DHT22;56800;52.142;5.364;2022-08-20T05:01:17;19.00;78.50
69595;DHT22;56800;52.142;5.364;2022-08-20T05:03:44;19.00;78.40
69595;DHT22;56800;52.142;5.364;2022-08-20T05:06:13;19.00;78.30
69595;DHT22;56800;52.142;5.364;2022-08-20T05:08:42;19.00;78.30
69595;DHT22;56800;52.142;5.364;2022-08-20T05:11:09;18.90;78.30
69595;DHT22;56800;52.142;5.364;2022-08-20T05:13:56;18.90;78.40
69595;DHT22;56800;52.142;5.364;2022-08-20T05:16:23;18.90;78.40
69595;DHT22;56800;52.142;5.364;2022-08-20T05:18:50;18.90;78.40
69595;DHT22;56800;52.142;5.364;2022-08-20T05:21:19;18.90;78.40
69595;DHT22;56800;52.142;5.364;2022-08-20T05:23:46;18.90;78.30
69595;DHT22;56800;52.142;5.364;2022-08-20T05:26:13;18.90;78.30
69595;DHT22;56800;52.142;5.364;2022-08-20T05:28:42;18.80;78.30
69595;DHT22;56800;52.142;5.364;2022-08-20T05:31:23;18.80;78.30
69595;DHT22;56800;52.142;5.364;2022-08-20T05:33:59;18.80;78.30
69595;DHT22;56800;52.142;5.364;2022-08-20T05:36:26;18.70;78.30
69595;DHT22;56800;52.142;5.364;2022-08-20T05:38:53;18.70;78.20
69595;DHT22;56800;52.142;5.364;2022-08-20T05:41:20;18.70;78.20
69595;DHT22;56800;52.142;5.364;2022-08-20T05:43:58;18.70;78.20
69595;DHT22;56800;52.142;5.364;2022-08-20T05:46:27;18.60;78.30
69595;DHT22;56800;52.142;5.364;2022-08-20T05:48:54;18.60;78.30
69595;DHT22;56800;52.142;5.364;2022-08-20T05:51:25;18.60;78.40
69595;DHT22;56800;52.142;5.364;2022-08-20T05:53:51;18.60;78.40
69595;DHT22;56800;52.142;5.364;2022-08-20T05:56:18;18.60;78.40
69595;DHT22;56800;52.142;5.364;2022-08-20T05:58:52;18.60;78.30
69595;DHT22;56800;52.142;5.364;2022-08-20T06:01:18;18.60;78.30
69595;DHT22;56800;52.142;5.364;2022-08-20T06:03:45;18.60;78.30
69595;DHT22;56800;52.142;5.364;2022-08-20T06:06:30;18.60;78.30
69595;DHT22;56800;52.142;5.364;2022-08-20T06:09:15;18.60;78.30
69595;DHT22;56800;52.142;5.364;2022-08-20T06:12:02;18.60;78.20
69595;DHT22;56800;52.142;5.364;2022-08-20T06:14:30;18.50;78.20
69595;DHT22;56800;52.142;5.364;2022-08-20T06:17:05;18.60;78.20
69595;DHT22;56800;52.142;5.364;2022-08-20T06:19:33;18.50;78.20
69595;DHT22;56800;52.142;5.364;2022-08-20T06:22:01;18.50;78.30
69595;DHT22;56800;52.142;5.364;2022-08-20T06:24:48;18.60;78.30
69595;DHT22;56800;52.142;5.364;2022-08-20T06:27:15;18.50;78.20
69595;DHT22;56800;52.142;5.364;2022-08-20T06:29:42;18.50;78.20
69595;DHT22;56800;52.142;5.364;2022-08-20T06:32:09;18.50;78.20
69595;DHT22;56800;52.142;5.364;2022-08-20T06:34:36;18.50;78.20
69595;DHT22;56800;52.142;5.364;2022-08-20T06:37:23;18.50;78.30
69595;DHT22;56800;52.142;5.364;2022-08-20T06:40:03;18.50;78.40
69595;DHT22;56800;52.142;5.364;2022-08-20T06:42:32;18.60;78.50
69595;DHT22;56800;52.142;5.364;2022-08-20T06:44:58;18.60;78.50
69595;DHT22;56800;52.142;5.364;2022-08-20T06:47:25;18.60;78.40
69595;DHT22;56800;52.142;5.364;2022-08-20T06:49:52;18.60;78.40
69595;DHT22;56800;52.142;5.364;2022-08-20T06:52:19;18.60;78.50
69595;DHT22;56800;52.142;5.364;2022-08-20T06:55:07;18.60;78.50
69595;DHT22;56800;52.142;5.364;2022-08-20T06:57:36;18.60;78.60
69595;DHT22;56800;52.142;5.364;2022-08-20T07:00:07;18.70;78.70
69595;DHT22;56800;52.142;5.364;2022-08-20T07:02:34;18.70;78.60
69595;DHT22;56800;52.142;5.364;2022-08-20T07:05:03;18.70;78.60
69595;DHT22;56800;52.142;5.364;2022-08-20T07:07:31;18.70;78.50
69595;DHT22;56800;52.142;5.364;2022-08-20T07:10:06;18.80;78.50
69595;DHT22;56800;52.142;5.364;2022-08-20T07:12:33;18.80;78.40
69595;DHT22;56800;52.142;5.364;2022-08-20T07:15:04;18.80;78.30
69595;DHT22;56800;52.142;5.364;2022-08-20T07:17:31;18.80;78.00
69595;DHT22;56800;52.142;5.364;2022-08-20T07:19:58;18.80;77.90
69595;DHT22;56800;52.142;5.364;2022-08-20T07:22:24;18.80;78.00
69595;DHT22;56800;52.142;5.364;2022-08-20T07:24:51;18.80;77.90
69595;DHT22;56800;52.142;5.364;2022-08-20T07:27:21;18.80;77.80
69595;DHT22;56800;52.142;5.364;2022-08-20T07:29:50;18.80;77.50
69595;DHT22;56800;52.142;5.364;2022-08-20T07:32:41;18.80;77.50
69595;DHT22;56800;52.142;5.364;2022-08-20T07:35:13;18.80;77.60
69595;DHT22;56800;52.142;5.364;2022-08-20T07:37:43;18.80;77.50
69595;DHT22;56800;52.142;5.364;2022-08-20T07:40:14;18.90;77.50
69595;DHT22;56800;52.142;5.364;2022-08-20T07:42:41;18.90;77.60
69595;DHT22;56800;52.142;5.364;2022-08-20T07:45:11;19.00;77.70
69595;DHT22;56800;52.142;5.364;2022-08-20T07:47:39;19.00;77.40
69595;DHT22;56800;52.142;5.364;2022-08-20T07:50:09;19.10;77.20
69595;DHT22;56800;52.142;5.364;2022-08-20T07:52:36;19.00;77.20
69595;DHT22;56800;52.142;5.364;2022-08-20T07:55:09;19.10;77.00
69595;DHT22;56800;52.142;5.364;2022-08-20T07:57:37;19.20;77.10
69595;DHT22;56800;52.142;5.364;2022-08-20T08:00:06;19.20;76.90
69595;DHT22;56800;52.142;5.364;2022-08-20T08:02:34;19.30;76.60
69595;DHT22;56800;52.142;5.364;2022-08-20T08:05:03;19.30;76.10
69595;DHT22;56800;52.142;5.364;2022-08-20T08:07:30;19.40;76.30
69595;DHT22;56800;52.142;5.364;2022-08-20T08:10:00;19.40;76.20
69595;DHT22;56800;52.142;5.364;2022-08-20T08:12:33;19.40;75.70
69595;DHT22;56800;52.142;5.364;2022-08-20T08:15:04;19.40;75.00
69595;DHT22;56800;52.142;5.364;2022-08-20T08:17:31;19.50;74.70
69595;DHT22;56800;52.142;5.364;2022-08-20T08:19:59;19.50;74.90
69595;DHT22;56800;52.142;5.364;2022-08-20T08:22:26;19.60;74.90
69595;DHT22;56800;52.142;5.364;2022-08-20T08:24:52;19.60;74.60
69595;DHT22;56800;52.142;5.364;2022-08-20T08:27:23;19.70;74.90
69595;DHT22;56800;52.142;5.364;2022-08-20T08:29:49;19.70;75.00
69595;DHT22;56800;52.142;5.364;2022-08-20T08:32:16;19.80;75.00
69595;DHT22;56800;52.142;5.364;2022-08-20T08:34:43;19.90;74.50
69595;DHT22;56800;52.142;5.364;2022-08-20T08:37:13;19.90;73.80
69595;DHT22;56800;52.142;5.364;2022-08-20T08:39:40;20.00;73.40
69595;DHT22;56800;52.142;5.364;2022-08-20T08:44:57;20.10;71.80
69595;DHT22;56800;52.142;5.364;2022-08-20T08:47:36;20.20;72.10
69595;DHT22;56800;52.142;5.364;2022-08-20T08:50:06;20.40;73.20
69595;DHT22;56800;52.142;5.364;2022-08-20T08:52:38;20.50;72.50
69595;DHT22;56800;52.142;5.364;2022-08-20T08:55:10;20.60;71.10
69595;DHT22;56800;52.142;5.364;2022-08-20T08:57:38;20.70;70.30
69595;DHT22;56800;52.142;5.364;2022-08-20T09:00:11;20.80;69.60
69595;DHT22;56800;52.142;5.364;2022-08-20T09:02:53;21.00;69.60
69595;DHT22;56800;52.142;5.364;2022-08-20T09:05:23;21.20;67.90
69595;DHT22;56800;52.142;5.364;2022-08-20T09:07:52;21.20;67.70
69595;DHT22;56800;52.142;5.364;2022-08-20T09:10:19;21.30;67.50
69595;DHT22;56800;52.142;5.364;2022-08-20T09:12:49;21.30;67.40
69595;DHT22;56800;52.142;5.364;2022-08-20T09:15:17;21.40;67.20
69595;DHT22;56800;52.142;5.364;2022-08-20T09:17:44;21.40;65.80
69595;DHT22;56800;52.142;5.364;2022-08-20T09:20:11;21.50;64.70
69595;DHT22;56800;52.142;5.364;2022-08-20T09:22:37;21.50;64.10
69595;DHT22;56800;52.142;5.364;2022-08-20T09:25:06;21.50;63.70
69595;DHT22;56800;52.142;5.364;2022-08-20T09:27:33;21.60;63.00
69595;DHT22;56800;52.142;5.364;2022-08-20T09:30:02;21.70;62.40
69595;DHT22;56800;52.142;5.364;2022-08-20T09:32:28;21.80;62.00
69595;DHT22;56800;52.142;5.364;2022-08-20T09:34:55;21.80;60.60
69595;DHT22;56800;52.142;5.364;2022-08-20T09:37:24;21.90;60.00
69595;DHT22;56800;52.142;5.364;2022-08-20T09:39:51;22.00;59.80
69595;DHT22;56800;52.142;5.364;2022-08-20T09:42:22;22.20;59.30
69595;DHT22;56800;52.142;5.364;2022-08-20T09:44:49;22.30;58.70
69595;DHT22;56800;52.142;5.364;2022-08-20T09:47:16;22.60;59.50
69595;DHT22;56800;52.142;5.364;2022-08-20T09:49:43;22.90;58.60
69595;DHT22;56800;52.142;5.364;2022-08-20T09:52:40;23.00;58.20
69595;DHT22;56800;52.142;5.364;2022-08-20T09:58:05;23.60;55.80
69595;DHT22;56800;52.142;5.364;2022-08-20T10:00:33;23.60;53.90
69595;DHT22;56800;52.142;5.364;2022-08-20T10:03:00;23.60;53.10
69595;DHT22;56800;52.142;5.364;2022-08-20T10:05:28;23.60;53.40
69595;DHT22;56800;52.142;5.364;2022-08-20T10:07:55;23.70;53.60
69595;DHT22;56800;52.142;5.364;2022-08-20T10:10:22;23.90;53.20
69595;DHT22;56800;52.142;5.364;2022-08-20T10:12:49;24.00;51.90
69595;DHT22;56800;52.142;5.364;2022-08-20T10:15:20;24.10;51.00
69595;DHT22;56800;52.142;5.364;2022-08-20T10:17:47;24.10;49.80
69595;DHT22;56800;52.142;5.364;2022-08-20T10:20:14;24.20;49.90
69595;DHT22;56800;52.142;5.364;2022-08-20T10:22:41;24.30;49.60
69595;DHT22;56800;52.142;5.364;2022-08-20T10:25:08;24.30;49.20
69595;DHT22;56800;52.142;5.364;2022-08-20T10:27:35;24.30;49.10
69595;DHT22;56800;52.142;5.364;2022-08-20T10:30:03;24.30;48.60
69595;DHT22;56800;52.142;5.364;2022-08-20T10:32:30;24.30;48.70
69595;DHT22;56800;52.142;5.364;2022-08-20T10:34:57;24.30;49.20
69595;DHT22;56800;52.142;5.364;2022-08-20T10:37:25;24.30;48.60
69595;DHT22;56800;52.142;5.364;2022-08-20T10:39:52;24.30;48.50
69595;DHT22;56800;52.142;5.364;2022-08-20T10:42:19;24.20;48.40
69595;DHT22;56800;52.142;5.364;2022-08-20T10:44:46;24.20;48.10
69595;DHT22;56800;52.142;5.364;2022-08-20T10:47:15;24.10;47.50
69595;DHT22;56800;52.142;5.364;2022-08-20T10:49:42;24.10;48.50
69595;DHT22;56800;52.142;5.364;2022-08-20T10:52:08;24.20;49.30
69595;DHT22;56800;52.142;5.364;2022-08-20T10:54:35;24.20;48.80
69595;DHT22;56800;52.142;5.364;2022-08-20T10:57:03;24.30;48.70
69595;DHT22;56800;52.142;5.364;2022-08-20T10:59:29;24.30;48.60
69595;DHT22;56800;52.142;5.364;2022-08-20T11:01:56;24.30;48.50
69595;DHT22;56800;52.142;5.364;2022-08-20T11:04:23;24.40;48.10
69595;DHT22;56800;52.142;5.364;2022-08-20T11:06:50;24.40;48.20
69595;DHT22;56800;52.142;5.364;2022-08-20T11:09:16;24.40;47.50
69595;DHT22;56800;52.142;5.364;2022-08-20T11:11:43;24.30;47.10
69595;DHT22;56800;52.142;5.364;2022-08-20T11:14:09;24.20;47.50
69595;DHT22;56800;52.142;5.364;2022-08-20T11:16:36;24.20;48.10
69595;DHT22;56800;52.142;5.364;2022-08-20T11:19:03;24.10;48.00
69595;DHT22;56800;52.142;5.364;2022-08-20T11:21:29;24.30;48.30
69595;DHT22;56800;52.142;5.364;2022-08-20T11:23:56;24.40;47.70
69595;DHT22;56800;52.142;5.364;2022-08-20T11:26:28;24.40;45.90
69595;DHT22;56800;52.142;5.364;2022-08-20T11:28:54;24.50;46.30
69595;DHT22;56800;52.142;5.364;2022-08-20T11:31:21;24.60;46.50
69595;DHT22;56800;52.142;5.364;2022-08-20T11:33:48;24.60;46.00
69595;DHT22;56800;52.142;5.364;2022-08-20T11:36:14;24.50;45.60
69595;DHT22;56800;52.142;5.364;2022-08-20T11:38:41;24.40;45.90
69595;DHT22;56800;52.142;5.364;2022-08-20T11:41:08;24.40;45.90
69595;DHT22;56800;52.142;5.364;2022-08-20T11:43:35;24.40;46.60
69595;DHT22;56800;52.142;5.364;2022-08-20T11:46:01;24.30;46.40
69595;DHT22;56800;52.142;5.364;2022-08-20T11:48:28;24.30;46.70
69595;DHT22;56800;52.142;5.364;2022-08-20T11:50:55;24.40;46.60
69595;DHT22;56800;52.142;5.364;2022-08-20T11:53:21;24.40;46.50
69595;DHT22;56800;52.142;5.364;2022-08-20T11:55:48;24.30;46.70
69595;DHT22;56800;52.142;5.364;2022-08-20T11:58:15;24.30;46.40
69595;DHT22;56800;52.142;5.364;2022-08-20T12:00:41;24.30;46.30
69595;DHT22;56800;52.142;5.364;2022-08-20T12:03:08;24.40;46.80
69595;DHT22;56800;52.142;5.364;2022-08-20T12:05:39;24.50;46.80
69595;DHT22;56800;52.142;5.364;2022-08-20T12:08:07;24.60;46.40
69595;DHT22;56800;52.142;5.364;2022-08-20T12:10:35;24.70;46.10
69595;DHT22;56800;52.142;5.364;2022-08-20T12:13:03;24.70;46.10
69595;DHT22;56800;52.142;5.364;2022-08-20T12:15:31;24.90;46.10
69595;DHT22;56800;52.142;5.364;2022-08-20T12:17:58;25.00;45.60
69595;DHT22;56800;52.142;5.364;2022-08-20T12:20:25;25.20;44.80
69595;DHT22;56800;52.142;5.364;2022-08-20T12:22:52;25.20;43.40
69595;DHT22;56800;52.142;5.364;2022-08-20T12:25:19;25.30;43.60
69595;DHT22;56800;52.142;5.364;2022-08-20T12:27:46;25.30;43.60
69595;DHT22;56800;52.142;5.364;2022-08-20T12:30:20;25.30;43.50
69595;DHT22;56800;52.142;5.364;2022-08-20T12:32:47;25.20;43.40
69595;DHT22;56800;52.142;5.364;2022-08-20T12:35:15;25.20;44.40
69595;DHT22;56800;52.142;5.364;2022-08-20T12:37:43;25.20;44.40
69595;DHT22;56800;52.142;5.364;2022-08-20T12:40:14;25.30;44.60
69595;DHT22;56800;52.142;5.364;2022-08-20T12:42:41;25.20;44.40
69595;DHT22;56800;52.142;5.364;2022-08-20T12:45:08;25.20;44.30
69595;DHT22;56800;52.142;5.364;2022-08-20T12:47:38;25.10;44.40
69595;DHT22;56800;52.142;5.364;2022-08-20T12:50:08;25.10;45.80
69595;DHT22;56800;52.142;5.364;2022-08-20T12:52:35;25.00;45.00
69595;DHT22;56800;52.142;5.364;2022-08-20T12:55:03;24.90;45.00
69595;DHT22;56800;52.142;5.364;2022-08-20T12:57:37;24.80;45.30
69595;DHT22;56800;52.142;5.364;2022-08-20T13:02:36;24.80;46.20
69595;DHT22;56800;52.142;5.364;2022-08-20T13:05:04;24.80;46.40
69595;DHT22;56800;52.142;5.364;2022-08-20T13:07:32;24.90;46.40
69595;DHT22;56800;52.142;5.364;2022-08-20T13:09:59;25.00;46.10
69595;DHT22;56800;52.142;5.364;2022-08-20T13:12:26;25.00;45.90
69595;DHT22;56800;52.142;5.364;2022-08-20T13:14:53;25.10;45.20
69595;DHT22;56800;52.142;5.364;2022-08-20T13:17:20;25.30;44.60
69595;DHT22;56800;52.142;5.364;2022-08-20T13:20:09;25.50;45.60
69595;DHT22;56800;52.142;5.364;2022-08-20T13:22:37;25.80;45.10
69595;DHT22;56800;52.142;5.364;2022-08-20T13:25:04;25.80;43.40
69595;DHT22;56800;52.142;5.364;2022-08-20T13:27:31;25.70;42.80
69595;DHT22;56800;52.142;5.364;2022-08-20T13:29:58;25.70;42.80
69595;DHT22;56800;52.142;5.364;2022-08-20T13:32:25;25.50;43.40
69595;DHT22;56800;52.142;5.364;2022-08-20T13:34:52;25.50;43.50
69595;DHT22;56800;52.142;5.364;2022-08-20T13:37:21;25.50;43.50
69595;DHT22;56800;52.142;5.364;2022-08-20T13:39:52;25.50;43.70
69595;DHT22;56800;52.142;5.364;2022-08-20T13:42:19;25.50;43.80
69595;DHT22;56800;52.142;5.364;2022-08-20T13:44:46;25.40;43.70
69595;DHT22;56800;52.142;5.364;2022-08-20T13:47:22;25.40;43.70
69595;DHT22;56800;52.142;5.364;2022-08-20T13:50:04;25.30;44.10
69595;DHT22;56800;52.142;5.364;2022-08-20T13:52:32;25.40;45.10
69595;DHT22;56800;52.142;5.364;2022-08-20T13:55:01;25.40;45.40
69595;DHT22;56800;52.142;5.364;2022-08-20T13:57:32;25.50;45.10
69595;DHT22;56800;52.142;5.364;2022-08-20T13:59:58;25.50;45.10
69595;DHT22;56800;52.142;5.364;2022-08-20T14:02:25;25.60;44.60
69595;DHT22;56800;52.142;5.364;2022-08-20T14:04:52;25.70;45.00
69595;DHT22;56800;52.142;5.364;2022-08-20T14:07:28;26.00;44.80
69595;DHT22;56800;52.142;5.364;2022-08-20T14:10:05;26.20;44.00
69595;DHT22;56800;52.142;5.364;2022-08-20T14:12:33;26.40;43.80
69595;DHT22;56800;52.142;5.364;2022-08-20T14:14:59;26.60;43.30
69595;DHT22;56800;52.142;5.364;2022-08-20T14:17:32;26.60;43.10
69595;DHT22;56800;52.142;5.364;2022-08-20T14:20:04;26.50;43.00
69595;DHT22;56800;52.142;5.364;2022-08-20T14:22:32;26.40;43.00
69595;DHT22;56800;52.142;5.364;2022-08-20T14:24:59;26.20;42.50
69595;DHT22;56800;52.142;5.364;2022-08-20T14:27:30;26.10;43.40
69595;DHT22;56800;52.142;5.364;2022-08-20T14:29:58;25.90;43.80
69595;DHT22;56800;52.142;5.364;2022-08-20T14:32:26;25.80;43.70
69595;DHT22;56800;52.142;5.364;2022-08-20T14:34:53;25.70;43.70
69595;DHT22;56800;52.142;5.364;2022-08-20T14:37:26;25.70;44.20
69595;DHT22;56800;52.142;5.364;2022-08-20T14:39:54;25.60;44.20
69595;DHT22;56800;52.142;5.364;2022-08-20T14:42:23;25.50;44.60
69595;DHT22;56800;52.142;5.364;2022-08-20T14:44:49;25.50;44.90
69595;DHT22;56800;52.142;5.364;2022-08-20T14:47:17;25.40;45.10
69595;DHT22;56800;52.142;5.364;2022-08-20T14:49:45;25.30;45.50
69595;DHT22;56800;52.142;5.364;2022-08-20T14:52:13;25.20;45.80
69595;DHT22;56800;52.142;5.364;2022-08-20T14:54:40;25.00;46.30
69595;DHT22;56800;52.142;5.364;2022-08-20T14:57:08;25.00;47.20
69595;DHT22;56800;52.142;5.364;2022-08-20T14:59:40;25.20;47.50
69595;DHT22;56800;52.142;5.364;2022-08-20T15:02:09;25.40;47.80
69595;DHT22;56800;52.142;5.364;2022-08-20T15:04:36;25.50;47.50
69595;DHT22;56800;52.142;5.364;2022-08-20T15:07:04;25.60;47.30
69595;DHT22;56800;52.142;5.364;2022-08-20T15:09:36;25.50;47.50
69595;DHT22;56800;52.142;5.364;2022-08-20T15:12:04;25.50;47.90
69595;DHT22;56800;52.142;5.364;2022-08-20T15:14:31;25.50;47.90
69595;DHT22;56800;52.142;5.364;2022-08-20T15:16:59;25.50;48.20
69595;DHT22;56800;52.142;5.364;2022-08-20T15:19:26;25.60;48.30
69595;DHT22;56800;52.142;5.364;2022-08-20T15:21:53;25.70;47.90
69595;DHT22;56800;52.142;5.364;2022-08-20T15:24:19;25.80;48.00
69595;DHT22;56800;52.142;5.364;2022-08-20T15:26:46;25.90;47.50
69595;DHT22;56800;52.142;5.364;2022-08-20T15:29:13;25.90;47.00
69595;DHT22;56800;52.142;5.364;2022-08-20T15:31:49;25.70;46.80
69595;DHT22;56800;52.142;5.364;2022-08-20T15:34:16;25.50;46.80
69595;DHT22;56800;52.142;5.364;2022-08-20T15:36:44;25.20;47.50
69595;DHT22;56800;52.142;5.364;2022-08-20T15:39:11;25.00;48.40
69595;DHT22;56800;52.142;5.364;2022-08-20T15:41:37;24.90;48.80
69595;DHT22;56800;52.142;5.364;2022-08-20T15:44:04;24.80;48.60
69595;DHT22;56800;52.142;5.364;2022-08-20T15:46:31;24.70;49.80
69595;DHT22;56800;52.142;5.364;2022-08-20T15:49:07;24.60;49.30
69595;DHT22;56800;52.142;5.364;2022-08-20T15:51:47;24.50;49.80
69595;DHT22;56800;52.142;5.364;2022-08-20T15:54:18;24.50;50.20
69595;DHT22;56800;52.142;5.364;2022-08-20T16:05:00;24.30;50.70
69595;DHT22;56800;52.142;5.364;2022-08-20T16:07:45;24.20;50.70